sensor_id;sensor_type;location;lat;lon;timestamp;P1;durP1;ratioP1;P2;durP2;ratioP2
59167;SDS011;44948;55.046;73.266;2023-04-19T00:00:58;40.10;;;18.77;;
59167;SDS011;44948;55.046;73.266;2023-04-19T00:04:44;45.60;;;17.00;;
59167;SDS011;44948;55.046;73.266;2023-04-19T00:07:59;43.22;;;18.52;;
59167;SDS011;44948;55.046;73.266;2023-04-19T00:11:01;54.33;;;21.73;;
59167;SDS011;44948;55.046;73.266;2023-04-19T00:14:43;50.90;;;19.10;;
59167;SDS011;44948;55.046;73.266;2023-04-19T00:17:45;58.70;;;19.13;;
59167;SDS011;44948;55.046;73.266;2023-04-19T00:20:47;50.53;;;17.48;;
59167;SDS011;44948;55.046;73.266;2023-04-19T00:24:43;55.10;;;16.60;;
59167;SDS011;44948;55.046;73.266;2023-04-19T00:27:46;38.55;;;17.70;;
59167;SDS011;44948;55.046;73.266;2023-04-19T00:30:47;52.30;;;22.30;;
59167;SDS011;44948;55.046;73.266;2023-04-19T00:33:50;55.60;;;22.23;;
59167;SDS011;44948;55.046;73.266;2023-04-19T00:36:52;50.35;;;21.30;;
59167;SDS011;44948;55.046;73.266;2023-04-19T00:40:05;50.78;;;19.67;;
59167;SDS011;44948;55.046;73.266;2023-04-19T00:43:07;45.58;;;21.42;;
59167;SDS011;44948;55.046;73.266;2023-04-19T00:46:09;59.50;;;23.38;;
59167;SDS011;44948;55.046;73.266;2023-04-19T00:49:43;61.25;;;21.58;;
59167;SDS011;44948;55.046;73.266;2023-04-19T00:52:50;66.22;;;24.13;;
59167;SDS011;44948;55.046;73.266;2023-04-19T00:55:54;67.82;;;24.65;;
59167;SDS011;44948;55.046;73.266;2023-04-19T00:58:59;66.85;;;26.40;;
59167;SDS011;44948;55.046;73.266;2023-04-19T01:02:01;49.92;;;20.75;;
59167;SDS011;44948;55.046;73.266;2023-04-19T01:05:04;39.75;;;17.80;;
59167;SDS011;44948;55.046;73.266;2023-04-19T01:08:07;53.03;;;14.02;;
59167;SDS011;44948;55.046;73.266;2023-04-19T01:11:09;29.40;;;11.70;;
59167;SDS011;44948;55.046;73.266;2023-04-19T01:14:43;29.08;;;10.25;;
59167;SDS011;44948;55.046;73.266;2023-04-19T01:17:45;19.27;;;9.73;;
59167;SDS011;44948;55.046;73.266;2023-04-19T01:20:47;26.95;;;11.50;;
59167;SDS011;44948;55.046;73.266;2023-04-19T01:23:49;27.90;;;11.23;;
59167;SDS011;44948;55.046;73.266;2023-04-19T01:26:52;26.15;;;10.95;;
59167;SDS011;44948;55.046;73.266;2023-04-19T01:29:57;28.77;;;9.65;;
59167;SDS011;44948;55.046;73.266;2023-04-19T01:33:10;23.83;;;9.45;;
59167;SDS011;44948;55.046;73.266;2023-04-19T01:36:12;26.75;;;10.00;;
59167;SDS011;44948;55.046;73.266;2023-04-19T01:39:43;12.80;;;7.30;;
59167;SDS011;44948;55.046;73.266;2023-04-19T01:42:50;24.73;;;9.40;;
59167;SDS011;44948;55.046;73.266;2023-04-19T01:45:53;25.83;;;10.55;;
59167;SDS011;44948;55.046;73.266;2023-04-19T01:48:56;29.05;;;11.95;;
59167;SDS011;44948;55.046;73.266;2023-04-19T01:51:59;32.80;;;13.80;;
59167;SDS011;44948;55.046;73.266;2023-04-19T01:55:01;49.03;;;17.42;;
59167;SDS011;44948;55.046;73.266;2023-04-19T01:58:04;48.70;;;17.67;;
59167;SDS011;44948;55.046;73.266;2023-04-19T02:01:07;34.15;;;14.65;;
59167;SDS011;44948;55.046;73.266;2023-04-19T02:04:43;40.03;;;16.27;;
59167;SDS011;44948;55.046;73.266;2023-04-19T02:07:45;81.85;;;27.40;;
59167;SDS011;44948;55.046;73.266;2023-04-19T02:10:47;51.05;;;16.55;;
59167;SDS011;44948;55.046;73.266;2023-04-19T02:13:50;41.85;;;15.98;;
59167;SDS011;44948;55.046;73.266;2023-04-19T02:16:52;27.48;;;12.23;;
59167;SDS011;44948;55.046;73.266;2023-04-19T02:19:56;27.93;;;10.67;;
59167;SDS011;44948;55.046;73.266;2023-04-19T02:23:08;28.15;;;10.60;;
59167;SDS011;44948;55.046;73.266;2023-04-19T02:26:20;21.45;;;7.60;;
59167;SDS011;44948;55.046;73.266;2023-04-19T02:32:49;17.30;;;5.35;;
59167;SDS011;44948;55.046;73.266;2023-04-19T02:35:52;28.05;;;6.45;;
59167;SDS011;44948;55.046;73.266;2023-04-19T02:39:43;24.04;;;6.58;;
59167;SDS011;44948;55.046;73.266;2023-04-19T02:42:56;21.42;;;6.28;;
59167;SDS011;44948;55.046;73.266;2023-04-19T02:45:59;21.65;;;5.60;;
59167;SDS011;44948;55.046;73.266;2023-04-19T02:49:43;14.01;;;4.94;;
59167;SDS011;44948;55.046;73.266;2023-04-19T02:52:45;22.60;;;5.88;;
59167;SDS011;44948;55.046;73.266;2023-04-19T02:55:48;24.77;;;9.43;;
59167;SDS011;44948;55.046;73.266;2023-04-19T02:58:53;15.60;;;7.07;;
59167;SDS011;44948;55.046;73.266;2023-04-19T03:01:55;10.37;;;3.80;;
59167;SDS011;44948;55.046;73.266;2023-04-19T03:05:09;16.92;;;4.95;;
59167;SDS011;44948;55.046;73.266;2023-04-19T03:08:13;10.93;;;3.85;;
59167;SDS011;44948;55.046;73.266;2023-04-19T03:11:17;25.52;;;6.53;;
59167;SDS011;44948;55.046;73.266;2023-04-19T03:17:57;15.48;;;6.20;;
59167;SDS011;44948;55.046;73.266;2023-04-19T03:20:59;32.47;;;9.52;;
59167;SDS011;44948;55.046;73.266;2023-04-19T03:27:56;21.95;;;7.10;;
59167;SDS011;44948;55.046;73.266;2023-04-19T03:31:19;18.80;;;5.63;;
59167;SDS011;44948;55.046;73.266;2023-04-19T03:37:46;14.68;;;5.13;;
59167;SDS011;44948;55.046;73.266;2023-04-19T03:40:48;21.67;;;6.25;;
59167;SDS011;44948;55.046;73.266;2023-04-19T03:43:51;22.30;;;6.55;;
59167;SDS011;44948;55.046;73.266;2023-04-19T03:46:54;13.60;;;5.00;;
59167;SDS011;44948;55.046;73.266;2023-04-19T03:50:00;11.13;;;4.88;;
59167;SDS011;44948;55.046;73.266;2023-04-19T03:53:05;17.13;;;6.05;;
59167;SDS011;44948;55.046;73.266;2023-04-19T03:56:20;24.75;;;7.43;;
59167;SDS011;44948;55.046;73.266;2023-04-19T04:02:46;14.00;;;5.95;;
59167;SDS011;44948;55.046;73.266;2023-04-19T04:05:48;12.07;;;6.25;;
59167;SDS011;44948;55.046;73.266;2023-04-19T04:08:50;15.00;;;6.13;;
59167;SDS011;44948;55.046;73.266;2023-04-19T04:11:52;13.03;;;5.00;;
59167;SDS011;44948;55.046;73.266;2023-04-19T04:14:55;14.80;;;5.43;;
59167;SDS011;44948;55.046;73.266;2023-04-19T04:17:57;17.88;;;6.00;;
59167;SDS011;44948;55.046;73.266;2023-04-19T04:21:00;14.90;;;6.27;;
59167;SDS011;44948;55.046;73.266;2023-04-19T04:24:43;8.88;;;4.60;;
59167;SDS011;44948;55.046;73.266;2023-04-19T04:28:11;15.68;;;5.18;;
59167;SDS011;44948;55.046;73.266;2023-04-19T04:31:14;20.52;;;6.22;;
59167;SDS011;44948;55.046;73.266;2023-04-19T04:34:43;7.50;;;4.25;;
59167;SDS011;44948;55.046;73.266;2023-04-19T04:37:52;12.07;;;5.60;;
59167;SDS011;44948;55.046;73.266;2023-04-19T04:40:59;13.13;;;4.90;;
59167;SDS011;44948;55.046;73.266;2023-04-19T04:44:43;18.05;;;5.65;;
59167;SDS011;44948;55.046;73.266;2023-04-19T04:47:48;13.48;;;5.70;;
59167;SDS011;44948;55.046;73.266;2023-04-19T04:50:51;12.98;;;5.45;;
59167;SDS011;44948;55.046;73.266;2023-04-19T04:58:00;19.92;;;7.10;;
59167;SDS011;44948;55.046;73.266;2023-04-19T05:01:17;13.80;;;6.35;;
59167;SDS011;44948;55.046;73.266;2023-04-19T05:04:22;13.68;;;5.45;;
59167;SDS011;44948;55.046;73.266;2023-04-19T05:07:24;11.77;;;5.82;;
59167;SDS011;44948;55.046;73.266;2023-04-19T20:02:01;27.63;;;12.52;;
59167;SDS011;44948;55.046;73.266;2023-04-19T20:05:05;30.85;;;14.45;;
59167;SDS011;44948;55.046;73.266;2023-04-19T20:08:09;31.65;;;14.80;;
59167;SDS011;44948;55.046;73.266;2023-04-19T20:11:13;36.08;;;13.82;;
59167;SDS011;44948;55.046;73.266;2023-04-19T20:14:16;24.83;;;11.63;;
59167;SDS011;44948;55.046;73.266;2023-04-19T20:17:18;21.60;;;10.73;;
59167;SDS011;44948;55.046;73.266;2023-04-19T20:20:26;19.90;;;11.63;;
59167;SDS011;44948;55.046;73.266;2023-04-19T20:23:28;24.45;;;12.38;;
59167;SDS011;44948;55.046;73.266;2023-04-19T20:26:36;44.05;;;18.90;;
59167;SDS011;44948;55.046;73.266;2023-04-19T20:29:43;57.92;;;22.55;;
59167;SDS011;44948;55.046;73.266;2023-04-19T20:32:50;36.35;;;15.52;;
59167;SDS011;44948;55.046;73.266;2023-04-19T20:35:53;41.85;;;14.82;;
59167;SDS011;44948;55.046;73.266;2023-04-19T20:42:05;42.83;;;18.17;;
59167;SDS011;44948;55.046;73.266;2023-04-19T20:45:17;31.00;;;14.40;;
59167;SDS011;44948;55.046;73.266;2023-04-19T20:48:30;26.38;;;12.57;;
59167;SDS011;44948;55.046;73.266;2023-04-19T20:51:33;30.00;;;11.20;;
59167;SDS011;44948;55.046;73.266;2023-04-19T20:54:35;22.40;;;10.82;;
59167;SDS011;44948;55.046;73.266;2023-04-19T20:57:44;20.35;;;9.63;;
59167;SDS011;44948;55.046;73.266;2023-04-19T21:00:48;32.88;;;10.98;;
59167;SDS011;44948;55.046;73.266;2023-04-19T21:03:51;25.85;;;10.73;;
59167;SDS011;44948;55.046;73.266;2023-04-19T21:06:54;23.55;;;10.10;;
59167;SDS011;44948;55.046;73.266;2023-04-19T21:10:01;22.13;;;8.50;;
59167;SDS011;44948;55.046;73.266;2023-04-19T21:13:06;17.88;;;7.55;;
59167;SDS011;44948;55.046;73.266;2023-04-19T21:16:19;16.92;;;7.20;;
59167;SDS011;44948;55.046;73.266;2023-04-19T21:19:21;18.83;;;7.95;;
59167;SDS011;44948;55.046;73.266;2023-04-19T21:22:25;14.98;;;6.70;;
59167;SDS011;44948;55.046;73.266;2023-04-19T21:25:27;16.08;;;6.80;;
59167;SDS011;44948;55.046;73.266;2023-04-19T21:28:32;16.42;;;7.82;;
59167;SDS011;44948;55.046;73.266;2023-04-19T21:31:44;19.48;;;8.55;;
59167;SDS011;44948;55.046;73.266;2023-04-19T21:34:47;15.57;;;8.07;;
59167;SDS011;44948;55.046;73.266;2023-04-19T21:37:49;17.77;;;9.38;;
59167;SDS011;44948;55.046;73.266;2023-04-19T21:40:57;20.40;;;9.77;;
59167;SDS011;44948;55.046;73.266;2023-04-19T21:44:02;18.80;;;9.38;;
59167;SDS011;44948;55.046;73.266;2023-04-19T21:47:05;20.77;;;9.13;;
59167;SDS011;44948;55.046;73.266;2023-04-19T21:50:08;19.98;;;8.18;;
59167;SDS011;44948;55.046;73.266;2023-04-19T21:53:11;16.20;;;8.50;;
59167;SDS011;44948;55.046;73.266;2023-04-19T21:56:24;19.02;;;8.80;;
59167;SDS011;44948;55.046;73.266;2023-04-19T21:59:26;20.92;;;9.68;;
59167;SDS011;44948;55.046;73.266;2023-04-19T22:02:31;27.23;;;9.70;;
59167;SDS011;44948;55.046;73.266;2023-04-19T22:05:34;19.13;;;10.25;;
59167;SDS011;44948;55.046;73.266;2023-04-19T22:08:41;33.63;;;13.68;;
59167;SDS011;44948;55.046;73.266;2023-04-19T22:11:50;35.67;;;16.30;;
59167;SDS011;44948;55.046;73.266;2023-04-19T22:14:53;39.53;;;16.92;;
59167;SDS011;44948;55.046;73.266;2023-04-19T22:18:02;46.63;;;18.42;;
59167;SDS011;44948;55.046;73.266;2023-04-19T22:21:05;47.80;;;17.25;;
59167;SDS011;44948;55.046;73.266;2023-04-19T22:24:10;39.70;;;17.45;;
59167;SDS011;44948;55.046;73.266;2023-04-19T22:27:13;32.45;;;15.18;;
59167;SDS011;44948;55.046;73.266;2023-04-19T22:30:15;32.93;;;13.37;;
59167;SDS011;44948;55.046;73.266;2023-04-19T22:33:18;32.30;;;13.93;;
59167;SDS011;44948;55.046;73.266;2023-04-19T22:36:21;37.10;;;15.35;;
59167;SDS011;44948;55.046;73.266;2023-04-19T22:39:23;43.67;;;18.88;;
59167;SDS011;44948;55.046;73.266;2023-04-19T22:42:37;55.33;;;21.87;;
59167;SDS011;44948;55.046;73.266;2023-04-19T22:45:39;57.28;;;20.75;;
59167;SDS011;44948;55.046;73.266;2023-04-19T22:48:47;33.72;;;15.15;;
59167;SDS011;44948;55.046;73.266;2023-04-19T22:52:00;38.55;;;16.23;;
59167;SDS011;44948;55.046;73.266;2023-04-19T22:55:03;49.35;;;18.60;;
59167;SDS011;44948;55.046;73.266;2023-04-19T22:58:06;45.05;;;18.60;;
59167;SDS011;44948;55.046;73.266;2023-04-19T23:01:12;29.23;;;11.45;;
59167;SDS011;44948;55.046;73.266;2023-04-19T23:04:24;23.83;;;10.07;;
59167;SDS011;44948;55.046;73.266;2023-04-19T23:07:27;23.45;;;10.73;;
59167;SDS011;44948;55.046;73.266;2023-04-19T23:10:35;26.48;;;10.98;;
59167;SDS011;44948;55.046;73.266;2023-04-19T23:13:48;30.90;;;11.63;;
59167;SDS011;44948;55.046;73.266;2023-04-19T23:16:58;25.23;;;10.18;;
59167;SDS011;44948;55.046;73.266;2023-04-19T23:20:04;32.55;;;12.75;;
59167;SDS011;44948;55.046;73.266;2023-04-19T23:23:08;40.40;;;13.95;;
59167;SDS011;44948;55.046;73.266;2023-04-19T23:26:13;33.13;;;13.70;;
59167;SDS011;44948;55.046;73.266;2023-04-19T23:29:15;35.58;;;14.20;;
59167;SDS011;44948;55.046;73.266;2023-04-19T23:32:18;37.78;;;13.32;;
59167;SDS011;44948;55.046;73.266;2023-04-19T23:35:21;31.02;;;12.70;;
59167;SDS011;44948;55.046;73.266;2023-04-19T23:38:23;24.55;;;10.60;;
59167;SDS011;44948;55.046;73.266;2023-04-19T23:41:26;19.75;;;9.38;;
59167;SDS011;44948;55.046;73.266;2023-04-19T23:44:38;27.67;;;11.32;;
59167;SDS011;44948;55.046;73.266;2023-04-19T23:47:47;25.73;;;10.38;;
59167;SDS011;44948;55.046;73.266;2023-04-19T23:50:54;22.34;;;9.64;;
59167;SDS011;44948;55.046;73.266;2023-04-19T23:54:01;21.70;;;8.48;;
59167;SDS011;44948;55.046;73.266;2023-04-19T23:57:04;18.88;;;9.55;;
